sensor_id;sensor_type;location;lat;lon;timestamp;pressure;altitude;pressure_sealevel;temperature;humidity
75745;BME280;64359;51.366;-0.222;2022-11-15T00:00:30;100190.58;;;21.20;63.77
75745;BME280;64359;51.366;-0.222;2022-11-15T00:01:35;100185.52;;;21.19;63.84
75745;BME280;64359;51.366;-0.222;2022-11-15T00:02:40;100181.23;;;21.19;63.76
75745;BME280;64359;51.366;-0.222;2022-11-15T00:03:44;100181.91;;;21.18;63.81
75745;BME280;64359;51.366;-0.222;2022-11-15T00:04:49;100182.11;;;21.18;63.87
75745;BME280;64359;51.366;-0.222;2022-11-15T00:05:53;100175.54;;;21.17;63.79
75745;BME280;64359;51.366;-0.222;2022-11-15T00:06:57;100176.73;;;21.18;63.89
75745;BME280;64359;51.366;-0.222;2022-11-15T00:08:02;100172.66;;;21.17;63.72
75745;BME280;64359;51.366;-0.222;2022-11-15T00:09:06;100174.53;;;21.17;63.80
75745;BME280;64359;51.366;-0.222;2022-11-15T00:10:11;100170.27;;;21.16;63.83
75745;BME280;64359;51.366;-0.222;2022-11-15T00:11:15;100166.86;;;21.15;63.85
75745;BME280;64359;51.366;-0.222;2022-11-15T00:12:20;100166.07;;;21.16;64.01
75745;BME280;64359;51.366;-0.222;2022-11-15T00:13:24;100166.52;;;21.17;64.13
75745;BME280;64359;51.366;-0.222;2022-11-15T00:14:29;100160.86;;;21.18;64.23
75745;BME280;64359;51.366;-0.222;2022-11-15T00:15:36;100164.16;;;21.19;64.21
75745;BME280;64359;51.366;-0.222;2022-11-15T00:16:40;100161.57;;;21.19;64.27
75745;BME280;64359;51.366;-0.222;2022-11-15T00:17:45;100157.61;;;21.19;64.09
75745;BME280;64359;51.366;-0.222;2022-11-15T00:18:52;100156.20;;;21.19;64.03
75745;BME280;64359;51.366;-0.222;2022-11-15T00:19:56;100158.11;;;21.19;64.05
75745;BME280;64359;51.366;-0.222;2022-11-15T00:21:06;100153.77;;;21.19;63.93
75745;BME280;64359;51.366;-0.222;2022-11-15T00:22:11;100152.98;;;21.18;63.85
75745;BME280;64359;51.366;-0.222;2022-11-15T00:23:16;100149.48;;;21.19;63.84
75745;BME280;64359;51.366;-0.222;2022-11-15T00:24:20;100149.36;;;21.18;63.74
75745;BME280;64359;51.366;-0.222;2022-11-15T00:25:25;100146.07;;;21.19;63.71
75745;BME280;64359;51.366;-0.222;2022-11-15T00:26:30;100144.73;;;21.18;63.71
75745;BME280;64359;51.366;-0.222;2022-11-15T00:27:34;100144.61;;;21.18;63.70
75745;BME280;64359;51.366;-0.222;2022-11-15T00:28:39;100140.52;;;21.17;63.69
75745;BME280;64359;51.366;-0.222;2022-11-15T00:29:43;100141.98;;;21.17;63.62
75745;BME280;64359;51.366;-0.222;2022-11-15T00:30:48;100137.77;;;21.16;63.59
75745;BME280;64359;51.366;-0.222;2022-11-15T00:31:52;100138.15;;;21.16;63.69
75745;BME280;64359;51.366;-0.222;2022-11-15T00:32:57;100136.56;;;21.15;63.60
75745;BME280;64359;51.366;-0.222;2022-11-15T00:35:50;100130.41;;;21.16;63.66
75745;BME280;64359;51.366;-0.222;2022-11-15T00:37:22;100130.98;;;21.11;63.61
75745;BME280;64359;51.366;-0.222;2022-11-15T00:38:55;100133.80;;;21.08;63.59
75745;BME280;64359;51.366;-0.222;2022-11-15T00:39:59;100130.71;;;21.07;63.55
75745;BME280;64359;51.366;-0.222;2022-11-15T00:41:04;100131.48;;;21.05;63.57
75745;BME280;64359;51.366;-0.222;2022-11-15T00:42:09;100130.23;;;21.05;63.69
75745;BME280;64359;51.366;-0.222;2022-11-15T00:43:13;100124.23;;;21.04;63.81
75745;BME280;64359;51.366;-0.222;2022-11-15T00:44:18;100123.52;;;21.04;63.89
75745;BME280;64359;51.366;-0.222;2022-11-15T00:45:22;100119.73;;;21.04;64.03
75745;BME280;64359;51.366;-0.222;2022-11-15T00:46:27;100118.23;;;21.03;63.99
75745;BME280;64359;51.366;-0.222;2022-11-15T00:47:31;100114.64;;;21.03;63.95
75745;BME280;64359;51.366;-0.222;2022-11-15T00:48:36;100114.93;;;21.02;63.99
75745;BME280;64359;51.366;-0.222;2022-11-15T00:49:40;100108.81;;;21.02;63.82
75745;BME280;64359;51.366;-0.222;2022-11-15T00:50:45;100106.86;;;21.01;63.77
75745;BME280;64359;51.366;-0.222;2022-11-15T00:51:49;100104.23;;;21.01;63.83
75745;BME280;64359;51.366;-0.222;2022-11-15T00:52:53;100103.85;;;21.01;63.68
75745;BME280;64359;51.366;-0.222;2022-11-15T00:53:58;100100.86;;;21.00;63.73
75745;BME280;64359;51.366;-0.222;2022-11-15T00:55:02;100099.81;;;21.00;63.81
75745;BME280;64359;51.366;-0.222;2022-11-15T00:56:07;100098.86;;;21.01;63.71
75745;BME280;64359;51.366;-0.222;2022-11-15T00:57:12;100096.77;;;21.00;63.66
75745;BME280;64359;51.366;-0.222;2022-11-15T00:58:16;100092.82;;;21.00;63.79
75745;BME280;64359;51.366;-0.222;2022-11-15T00:59:20;100090.56;;;20.99;63.67
75745;BME280;64359;51.366;-0.222;2022-11-15T01:00:25;100089.82;;;20.99;63.61
75745;BME280;64359;51.366;-0.222;2022-11-15T01:01:29;100087.35;;;20.99;63.67
75745;BME280;64359;51.366;-0.222;2022-11-15T01:02:33;100087.52;;;20.99;63.73
75745;BME280;64359;51.366;-0.222;2022-11-15T01:03:40;100078.98;;;20.98;63.58
75745;BME280;64359;51.366;-0.222;2022-11-15T01:04:44;100078.81;;;20.98;63.51
75745;BME280;64359;51.366;-0.222;2022-11-15T01:05:49;100079.06;;;20.97;63.61
75745;BME280;64359;51.366;-0.222;2022-11-15T01:06:53;100074.45;;;20.97;63.60
75745;BME280;64359;51.366;-0.222;2022-11-15T01:07:57;100071.02;;;20.97;63.55
75745;BME280;64359;51.366;-0.222;2022-11-15T01:09:02;100070.02;;;20.96;63.61
75745;BME280;64359;51.366;-0.222;2022-11-15T01:10:08;100069.36;;;20.96;63.54
75745;BME280;64359;51.366;-0.222;2022-11-15T01:11:13;100066.90;;;20.97;63.64
75745;BME280;64359;51.366;-0.222;2022-11-15T01:12:17;100066.65;;;20.97;63.79
75745;BME280;64359;51.366;-0.222;2022-11-15T01:13:22;100067.11;;;20.98;64.03
75745;BME280;64359;51.366;-0.222;2022-11-15T01:14:26;100066.44;;;20.98;64.00
75745;BME280;64359;51.366;-0.222;2022-11-15T01:15:30;100064.07;;;20.99;64.13
75745;BME280;64359;51.366;-0.222;2022-11-15T01:16:35;100062.36;;;20.99;63.95
75745;BME280;64359;51.366;-0.222;2022-11-15T01:17:39;100057.70;;;20.99;63.84
75745;BME280;64359;51.366;-0.222;2022-11-15T01:18:44;100055.52;;;20.99;63.79
75745;BME280;64359;51.366;-0.222;2022-11-15T01:20:04;100055.36;;;20.99;63.73
75745;BME280;64359;51.366;-0.222;2022-11-15T01:21:12;100055.16;;;20.99;63.65
75745;BME280;64359;51.366;-0.222;2022-11-15T01:22:17;100052.57;;;20.99;63.54
75745;BME280;64359;51.366;-0.222;2022-11-15T01:23:21;100046.61;;;20.98;63.60
75745;BME280;64359;51.366;-0.222;2022-11-15T01:24:25;100048.66;;;20.98;63.44
75745;BME280;64359;51.366;-0.222;2022-11-15T01:25:30;100047.66;;;20.97;63.49
75745;BME280;64359;51.366;-0.222;2022-11-15T01:26:34;100044.45;;;20.97;63.48
75745;BME280;64359;51.366;-0.222;2022-11-15T01:27:38;100044.11;;;20.97;63.41
75745;BME280;64359;51.366;-0.222;2022-11-15T01:28:43;100044.70;;;20.97;63.53
75745;BME280;64359;51.366;-0.222;2022-11-15T01:29:48;100040.12;;;20.96;63.36
75745;BME280;64359;51.366;-0.222;2022-11-15T01:30:52;100040.53;;;20.96;63.34
75745;BME280;64359;51.366;-0.222;2022-11-15T01:31:56;100037.16;;;20.95;63.48
75745;BME280;64359;51.366;-0.222;2022-11-15T01:33:01;100033.45;;;20.94;63.39
75745;BME280;64359;51.366;-0.222;2022-11-15T01:35:52;100022.75;;;20.95;63.46
75745;BME280;64359;51.366;-0.222;2022-11-15T01:36:57;100022.83;;;20.92;63.43
75745;BME280;64359;51.366;-0.222;2022-11-15T01:38:02;100015.91;;;20.89;63.29
75745;BME280;64359;51.366;-0.222;2022-11-15T01:39:07;100011.41;;;20.88;63.37
75745;BME280;64359;51.366;-0.222;2022-11-15T01:40:12;100009.66;;;20.86;63.39
75745;BME280;64359;51.366;-0.222;2022-11-15T01:41:21;100005.55;;;20.84;63.40
75745;BME280;64359;51.366;-0.222;2022-11-15T01:42:26;100002.77;;;20.83;63.55
75745;BME280;64359;51.366;-0.222;2022-11-15T01:43:32;100004.71;;;20.84;63.63
75745;BME280;64359;51.366;-0.222;2022-11-15T01:44:49;100008.09;;;20.83;63.77
75745;BME280;64359;51.366;-0.222;2022-11-15T01:45:58;100002.98;;;20.82;63.76
75745;BME280;64359;51.366;-0.222;2022-11-15T01:47:07;100004.85;;;20.81;63.79
75745;BME280;64359;51.366;-0.222;2022-11-15T01:48:13;99999.85;;;20.81;63.74
75745;BME280;64359;51.366;-0.222;2022-11-15T01:49:19;99994.48;;;20.81;63.73
75745;BME280;64359;51.366;-0.222;2022-11-15T01:50:27;99992.19;;;20.80;63.70
75745;BME280;64359;51.366;-0.222;2022-11-15T01:51:34;99987.48;;;20.79;63.66
75745;BME280;64359;51.366;-0.222;2022-11-15T01:52:40;99985.02;;;20.78;63.66
75745;BME280;64359;51.366;-0.222;2022-11-15T01:53:47;99985.52;;;20.77;63.59
75745;BME280;64359;51.366;-0.222;2022-11-15T01:54:56;99984.27;;;20.76;63.63
75745;BME280;64359;51.366;-0.222;2022-11-15T01:56:06;99987.35;;;20.75;63.63
75745;BME280;64359;51.366;-0.222;2022-11-15T01:57:13;99986.77;;;20.74;63.65
75745;BME280;64359;51.366;-0.222;2022-11-15T01:58:17;99986.56;;;20.72;63.55
75745;BME280;64359;51.366;-0.222;2022-11-15T01:59:22;99984.48;;;20.72;63.69
75745;BME280;64359;51.366;-0.222;2022-11-15T02:00:27;99984.98;;;20.71;63.57
75745;BME280;64359;51.366;-0.222;2022-11-15T02:01:33;99980.65;;;20.69;63.59
75745;BME280;64359;51.366;-0.222;2022-11-15T02:02:38;99979.03;;;20.68;63.61
75745;BME280;64359;51.366;-0.222;2022-11-15T02:03:46;99973.24;;;20.67;63.52
75745;BME280;64359;51.366;-0.222;2022-11-15T02:04:54;99972.16;;;20.66;63.66
75745;BME280;64359;51.366;-0.222;2022-11-15T02:05:59;99971.77;;;20.65;63.51
75745;BME280;64359;51.366;-0.222;2022-11-15T02:07:04;99974.16;;;20.63;63.65
75745;BME280;64359;51.366;-0.222;2022-11-15T02:08:09;99971.88;;;20.63;63.55
75745;BME280;64359;51.366;-0.222;2022-11-15T02:09:22;99967.16;;;20.63;63.88
75745;BME280;64359;51.366;-0.222;2022-11-15T02:10:28;99968.87;;;20.63;63.98
75745;BME280;64359;51.366;-0.222;2022-11-15T02:11:32;99966.66;;;20.64;64.04
75745;BME280;64359;51.366;-0.222;2022-11-15T02:12:37;99961.41;;;20.64;64.12
75745;BME280;64359;51.366;-0.222;2022-11-15T02:13:42;99957.79;;;20.64;64.11
75745;BME280;64359;51.366;-0.222;2022-11-15T02:14:49;99955.55;;;20.65;64.08
75745;BME280;64359;51.366;-0.222;2022-11-15T02:16:02;99953.16;;;20.65;63.99
75745;BME280;64359;51.366;-0.222;2022-11-15T02:17:19;99946.84;;;20.64;63.84
75745;BME280;64359;51.366;-0.222;2022-11-15T02:18:28;99943.72;;;20.63;63.81
75745;BME280;64359;51.366;-0.222;2022-11-15T02:19:55;99943.27;;;20.62;63.92
75745;BME280;64359;51.366;-0.222;2022-11-15T02:21:16;99936.98;;;20.61;63.68
75745;BME280;64359;51.366;-0.222;2022-11-15T02:22:33;99935.10;;;20.60;63.82
75745;BME280;64359;51.366;-0.222;2022-11-15T02:24:20;99932.00;;;20.59;63.84
75745;BME280;64359;51.366;-0.222;2022-11-15T02:25:39;99927.23;;;20.56;63.81
75745;BME280;64359;51.366;-0.222;2022-11-15T02:27:13;99924.54;;;20.55;63.77
75745;BME280;64359;51.366;-0.222;2022-11-15T02:30:04;99917.75;;;20.51;63.89
75745;BME280;64359;51.366;-0.222;2022-11-15T02:31:13;99917.05;;;20.50;63.86
75745;BME280;64359;51.366;-0.222;2022-11-15T02:36:25;99913.48;;;20.50;63.91
75745;BME280;64359;51.366;-0.222;2022-11-15T02:37:34;99914.05;;;20.47;63.95
75745;BME280;64359;51.366;-0.222;2022-11-15T02:38:43;99910.64;;;20.47;64.11
75745;BME280;64359;51.366;-0.222;2022-11-15T02:39:54;99904.11;;;20.47;64.24
75745;BME280;64359;51.366;-0.222;2022-11-15T02:41:07;99903.90;;;20.48;64.30
75745;BME280;64359;51.366;-0.222;2022-11-15T02:42:17;99900.56;;;20.48;64.34
75745;BME280;64359;51.366;-0.222;2022-11-15T02:43:45;99903.02;;;20.47;64.29
75745;BME280;64359;51.366;-0.222;2022-11-15T02:45:05;99904.23;;;20.47;64.27
75745;BME280;64359;51.366;-0.222;2022-11-15T02:46:14;99898.69;;;20.46;64.16
75745;BME280;64359;51.366;-0.222;2022-11-15T02:47:22;99895.48;;;20.46;64.11
75745;BME280;64359;51.366;-0.222;2022-11-15T02:48:29;99895.02;;;20.46;64.15
75745;BME280;64359;51.366;-0.222;2022-11-15T02:49:35;99886.54;;;20.46;64.08
75745;BME280;64359;51.366;-0.222;2022-11-15T02:50:41;99885.41;;;20.47;64.16
75745;BME280;64359;51.366;-0.222;2022-11-15T02:51:48;99881.64;;;20.47;64.08
75745;BME280;64359;51.366;-0.222;2022-11-15T02:52:54;99880.80;;;20.46;64.05
75745;BME280;64359;51.366;-0.222;2022-11-15T02:53:59;99879.25;;;20.46;64.08
75745;BME280;64359;51.366;-0.222;2022-11-15T02:55:04;99877.51;;;20.45;64.10
75745;BME280;64359;51.366;-0.222;2022-11-15T02:56:10;99878.55;;;20.46;64.01
75745;BME280;64359;51.366;-0.222;2022-11-15T02:57:20;99875.51;;;20.45;64.04
75745;BME280;64359;51.366;-0.222;2022-11-15T03:00:12;99866.52;;;20.43;63.95
75745;BME280;64359;51.366;-0.222;2022-11-15T03:01:24;99869.55;;;20.41;63.90
75745;BME280;64359;51.366;-0.222;2022-11-15T03:02:57;99862.86;;;20.40;63.91
75745;BME280;64359;51.366;-0.222;2022-11-15T03:04:15;99860.29;;;20.39;64.03
75745;BME280;64359;51.366;-0.222;2022-11-15T03:05:28;99854.05;;;20.37;64.02
75745;BME280;64359;51.366;-0.222;2022-11-15T03:06:41;99851.72;;;20.37;64.07
75745;BME280;64359;51.366;-0.222;2022-11-15T03:07:53;99847.64;;;20.37;64.11
75745;BME280;64359;51.366;-0.222;2022-11-15T03:09:05;99843.56;;;20.36;64.36
75745;BME280;64359;51.366;-0.222;2022-11-15T03:10:16;99841.14;;;20.37;64.54
75745;BME280;64359;51.366;-0.222;2022-11-15T03:11:23;99841.98;;;20.37;64.46
75745;BME280;64359;51.366;-0.222;2022-11-15T03:12:30;99840.95;;;20.37;64.38
75745;BME280;64359;51.366;-0.222;2022-11-15T03:13:43;99843.64;;;20.37;64.35
75745;BME280;64359;51.366;-0.222;2022-11-15T03:14:56;99843.02;;;20.36;64.15
75745;BME280;64359;51.366;-0.222;2022-11-15T03:16:06;99841.14;;;20.35;64.27
75745;BME280;64359;51.366;-0.222;2022-11-15T03:17:18;99840.65;;;20.35;64.25
75745;BME280;64359;51.366;-0.222;2022-11-15T03:18:29;99839.12;;;20.34;64.20
75745;BME280;64359;51.366;-0.222;2022-11-15T03:19:40;99839.71;;;20.34;64.17
75745;BME280;64359;51.366;-0.222;2022-11-15T03:20:48;99833.67;;;20.33;64.28
75745;BME280;64359;51.366;-0.222;2022-11-15T03:21:53;99836.41;;;20.33;64.10
75745;BME280;64359;51.366;-0.222;2022-11-15T03:23:03;99834.34;;;20.32;64.19
75745;BME280;64359;51.366;-0.222;2022-11-15T03:24:09;99835.17;;;20.32;64.11
75745;BME280;64359;51.366;-0.222;2022-11-15T03:25:19;99832.80;;;20.30;64.25
75745;BME280;64359;51.366;-0.222;2022-11-15T03:26:26;99828.27;;;20.29;64.17
75745;BME280;64359;51.366;-0.222;2022-11-15T03:27:36;99824.19;;;20.29;64.16
75745;BME280;64359;51.366;-0.222;2022-11-15T03:28:46;99820.90;;;20.28;64.22
75745;BME280;64359;51.366;-0.222;2022-11-15T03:29:55;99819.41;;;20.27;64.12
75745;BME280;64359;51.366;-0.222;2022-11-15T03:31:03;99816.45;;;20.26;64.16
75745;BME280;64359;51.366;-0.222;2022-11-15T03:32:31;99813.38;;;20.25;64.20
75745;BME280;64359;51.366;-0.222;2022-11-15T03:33:36;99813.41;;;20.24;64.27
75745;BME280;64359;51.366;-0.222;2022-11-15T03:34:44;99810.01;;;20.24;64.30
75745;BME280;64359;51.366;-0.222;2022-11-15T03:35:52;99806.96;;;20.24;64.47
75745;BME280;64359;51.366;-0.222;2022-11-15T03:36:58;99808.34;;;20.24;64.64
75745;BME280;64359;51.366;-0.222;2022-11-15T03:38:11;99813.95;;;20.26;64.79
75745;BME280;64359;51.366;-0.222;2022-11-15T03:39:17;99813.73;;;20.26;64.79
75745;BME280;64359;51.366;-0.222;2022-11-15T03:40:24;99812.33;;;20.24;64.66
75745;BME280;64359;51.366;-0.222;2022-11-15T03:41:35;99812.53;;;20.24;64.65
75745;BME280;64359;51.366;-0.222;2022-11-15T03:42:45;99810.08;;;20.23;64.49
75745;BME280;64359;51.366;-0.222;2022-11-15T03:43:55;99805.52;;;20.23;64.41
75745;BME280;64359;51.366;-0.222;2022-11-15T03:45:05;99808.59;;;20.22;64.35
75745;BME280;64359;51.366;-0.222;2022-11-15T03:46:16;99801.52;;;20.22;64.34
75745;BME280;64359;51.366;-0.222;2022-11-15T03:47:26;99797.89;;;20.22;64.39
75745;BME280;64359;51.366;-0.222;2022-11-15T03:48:35;99798.02;;;20.21;64.34
75745;BME280;64359;51.366;-0.222;2022-11-15T03:49:46;99793.95;;;20.20;64.32
75745;BME280;64359;51.366;-0.222;2022-11-15T03:50:54;99793.70;;;20.19;64.43
75745;BME280;64359;51.366;-0.222;2022-11-15T03:52:00;99794.27;;;20.19;64.36
75745;BME280;64359;51.366;-0.222;2022-11-15T03:53:06;99789.52;;;20.19;64.25
75745;BME280;64359;51.366;-0.222;2022-11-15T03:54:13;99783.92;;;20.18;64.28
75745;BME280;64359;51.366;-0.222;2022-11-15T03:55:20;99784.21;;;20.18;64.31
75745;BME280;64359;51.366;-0.222;2022-11-15T03:56:25;99780.48;;;20.17;64.32
75745;BME280;64359;51.366;-0.222;2022-11-15T03:57:29;99780.55;;;20.17;64.26
75745;BME280;64359;51.366;-0.222;2022-11-15T03:58:34;99774.55;;;20.16;64.38
75745;BME280;64359;51.366;-0.222;2022-11-15T03:59:38;99773.20;;;20.15;64.41
75745;BME280;64359;51.366;-0.222;2022-11-15T04:00:43;99771.65;;;20.15;64.32
75745;BME280;64359;51.366;-0.222;2022-11-15T04:01:48;99767.61;;;20.14;64.32
75745;BME280;64359;51.366;-0.222;2022-11-15T04:02:52;99766.28;;;20.13;64.30
75745;BME280;64359;51.366;-0.222;2022-11-15T04:03:56;99761.50;;;20.14;64.45
75745;BME280;64359;51.366;-0.222;2022-11-15T04:05:01;99759.76;;;20.13;64.66
75745;BME280;64359;51.366;-0.222;2022-11-15T04:06:06;99757.92;;;20.13;64.78
75745;BME280;64359;51.366;-0.222;2022-11-15T04:07:11;99756.96;;;20.14;64.79
75745;BME280;64359;51.366;-0.222;2022-11-15T04:08:16;99755.67;;;20.14;64.79
75745;BME280;64359;51.366;-0.222;2022-11-15T04:09:20;99754.38;;;20.14;64.76
75745;BME280;64359;51.366;-0.222;2022-11-15T04:10:24;99751.14;;;20.14;64.78
75745;BME280;64359;51.366;-0.222;2022-11-15T04:11:29;99749.30;;;20.15;64.68
75745;BME280;64359;51.366;-0.222;2022-11-15T04:12:35;99748.23;;;20.14;64.79
75745;BME280;64359;51.366;-0.222;2022-11-15T04:13:40;99750.27;;;20.14;64.60
75745;BME280;64359;51.366;-0.222;2022-11-15T04:14:44;99752.60;;;20.14;64.44
75745;BME280;64359;51.366;-0.222;2022-11-15T04:16:09;99743.23;;;20.13;64.41
75745;BME280;64359;51.366;-0.222;2022-11-15T04:17:13;99739.04;;;20.12;64.54
75745;BME280;64359;51.366;-0.222;2022-11-15T04:18:18;99734.17;;;20.12;64.28
75745;BME280;64359;51.366;-0.222;2022-11-15T04:19:22;99733.30;;;20.12;64.47
75745;BME280;64359;51.366;-0.222;2022-11-15T04:20:44;99730.08;;;20.10;64.42
75745;BME280;64359;51.366;-0.222;2022-11-15T04:22:07;99725.95;;;20.09;64.45
75745;BME280;64359;51.366;-0.222;2022-11-15T04:23:29;99722.00;;;20.07;64.43
75745;BME280;64359;51.366;-0.222;2022-11-15T04:24:51;99722.96;;;20.05;64.43
75745;BME280;64359;51.366;-0.222;2022-11-15T04:25:58;99729.95;;;20.04;64.40
75745;BME280;64359;51.366;-0.222;2022-11-15T04:27:03;99722.21;;;20.05;64.45
75745;BME280;64359;51.366;-0.222;2022-11-15T04:28:07;99721.75;;;20.04;64.56
75745;BME280;64359;51.366;-0.222;2022-11-15T04:29:12;99724.38;;;20.03;64.43
75745;BME280;64359;51.366;-0.222;2022-11-15T04:30:45;99724.59;;;20.02;64.59
75745;BME280;64359;51.366;-0.222;2022-11-15T04:31:50;99719.13;;;20.02;64.67
75745;BME280;64359;51.366;-0.222;2022-11-15T04:32:55;99723.63;;;20.02;64.88
75745;BME280;64359;51.366;-0.222;2022-11-15T04:33:59;99721.34;;;20.03;64.89
75745;BME280;64359;51.366;-0.222;2022-11-15T04:35:05;99714.89;;;20.03;64.97
75745;BME280;64359;51.366;-0.222;2022-11-15T04:36:09;99712.11;;;20.03;64.91
75745;BME280;64359;51.366;-0.222;2022-11-15T04:37:32;99707.23;;;20.03;64.93
75745;BME280;64359;51.366;-0.222;2022-11-15T04:38:36;99705.15;;;20.04;64.91
75745;BME280;64359;51.366;-0.222;2022-11-15T04:39:41;99706.29;;;20.04;64.68
75745;BME280;64359;51.366;-0.222;2022-11-15T04:40:46;99704.16;;;20.03;64.71
75745;BME280;64359;51.366;-0.222;2022-11-15T04:41:50;99701.88;;;20.03;64.75
75745;BME280;64359;51.366;-0.222;2022-11-15T04:42:55;99697.21;;;20.03;64.65
75745;BME280;64359;51.366;-0.222;2022-11-15T04:43:59;99691.19;;;20.02;64.65
75745;BME280;64359;51.366;-0.222;2022-11-15T04:45:05;99690.69;;;20.02;64.61
75745;BME280;64359;51.366;-0.222;2022-11-15T04:46:09;99688.56;;;20.01;64.50
75745;BME280;64359;51.366;-0.222;2022-11-15T04:47:14;99685.29;;;20.02;64.46
75745;BME280;64359;51.366;-0.222;2022-11-15T04:48:18;99681.71;;;20.01;64.61
75745;BME280;64359;51.366;-0.222;2022-11-15T04:49:22;99679.04;;;20.01;64.49
75745;BME280;64359;51.366;-0.222;2022-11-15T04:50:27;99671.40;;;20.00;64.57
75745;BME280;64359;51.366;-0.222;2022-11-15T04:51:31;99674.35;;;20.00;64.56
75745;BME280;64359;51.366;-0.222;2022-11-15T04:52:35;99673.35;;;19.99;64.47
75745;BME280;64359;51.366;-0.222;2022-11-15T04:53:40;99672.36;;;19.99;64.57
75745;BME280;64359;51.366;-0.222;2022-11-15T04:54:44;99668.70;;;19.98;64.48
75745;BME280;64359;51.366;-0.222;2022-11-15T04:55:49;99665.50;;;19.98;64.48
75745;BME280;64359;51.366;-0.222;2022-11-15T04:56:53;99669.86;;;19.97;64.56
75745;BME280;64359;51.366;-0.222;2022-11-15T04:58:01;99669.23;;;19.98;64.70
75745;BME280;64359;51.366;-0.222;2022-11-15T04:59:06;99664.41;;;19.98;64.76
75745;BME280;64359;51.366;-0.222;2022-11-15T05:00:13;99658.88;;;19.99;64.86
75745;BME280;64359;51.366;-0.222;2022-11-15T05:01:18;99661.59;;;19.98;64.99
75745;BME280;64359;51.366;-0.222;2022-11-15T05:02:23;99661.25;;;19.99;64.97
75745;BME280;64359;51.366;-0.222;2022-11-15T05:03:47;99659.92;;;20.00;64.89
75745;BME280;64359;51.366;-0.222;2022-11-15T05:05:10;99655.89;;;19.99;64.83
75745;BME280;64359;51.366;-0.222;2022-11-15T05:06:14;99656.34;;;19.99;64.84
75745;BME280;64359;51.366;-0.222;2022-11-15T05:07:18;99649.52;;;19.98;64.72
75745;BME280;64359;51.366;-0.222;2022-11-15T05:08:23;99652.98;;;19.98;64.64
75745;BME280;64359;51.366;-0.222;2022-11-15T05:09:28;99648.41;;;19.97;64.74
75745;BME280;64359;51.366;-0.222;2022-11-15T05:10:32;99648.45;;;19.97;64.66
75745;BME280;64359;51.366;-0.222;2022-11-15T05:11:37;99647.54;;;19.97;64.72
75745;BME280;64359;51.366;-0.222;2022-11-15T05:12:41;99649.95;;;19.97;64.69
75745;BME280;64359;51.366;-0.222;2022-11-15T05:13:46;99645.99;;;19.96;64.75
75745;BME280;64359;51.366;-0.222;2022-11-15T05:14:50;99643.84;;;19.96;64.79
75745;BME280;64359;51.366;-0.222;2022-11-15T05:15:54;99637.80;;;19.97;64.79
75745;BME280;64359;51.366;-0.222;2022-11-15T05:16:59;99638.17;;;19.97;64.89
75745;BME280;64359;51.366;-0.222;2022-11-15T05:18:04;99637.09;;;19.97;65.06
75745;BME280;64359;51.366;-0.222;2022-11-15T05:19:09;99629.73;;;19.97;65.07
75745;BME280;64359;51.366;-0.222;2022-11-15T05:20:14;99626.32;;;19.97;65.29
75745;BME280;64359;51.366;-0.222;2022-11-15T05:21:18;99623.91;;;19.97;65.33
75745;BME280;64359;51.366;-0.222;2022-11-15T05:22:23;99622.33;;;19.98;65.59
75745;BME280;64359;51.366;-0.222;2022-11-15T05:23:28;99612.92;;;20.00;65.78
75745;BME280;64359;51.366;-0.222;2022-11-15T05:24:32;99609.09;;;20.02;66.09
75745;BME280;64359;51.366;-0.222;2022-11-15T05:25:38;99607.50;;;20.04;66.17
75745;BME280;64359;51.366;-0.222;2022-11-15T05:26:42;99603.71;;;20.05;66.17
75745;BME280;64359;51.366;-0.222;2022-11-15T05:27:47;99611.02;;;20.07;66.13
75745;BME280;64359;51.366;-0.222;2022-11-15T05:28:55;99602.83;;;20.09;66.15
75745;BME280;64359;51.366;-0.222;2022-11-15T05:30:00;99605.41;;;20.11;66.13
75745;BME280;64359;51.366;-0.222;2022-11-15T05:31:05;99604.64;;;20.13;66.06
75745;BME280;64359;51.366;-0.222;2022-11-15T05:32:10;99595.02;;;20.15;66.11
75745;BME280;64359;51.366;-0.222;2022-11-15T05:33:15;99599.30;;;20.18;66.12
75745;BME280;64359;51.366;-0.222;2022-11-15T05:34:20;99595.29;;;20.20;66.11
75745;BME280;64359;51.366;-0.222;2022-11-15T05:35:31;99596.27;;;20.23;66.07
75745;BME280;64359;51.366;-0.222;2022-11-15T05:36:40;99596.48;;;20.26;66.08
75745;BME280;64359;51.366;-0.222;2022-11-15T05:37:45;99597.38;;;20.29;66.05
75745;BME280;64359;51.366;-0.222;2022-11-15T05:38:51;99591.95;;;20.31;66.02
75745;BME280;64359;51.366;-0.222;2022-11-15T05:39:55;99587.09;;;20.34;66.01
75745;BME280;64359;51.366;-0.222;2022-11-15T05:41:00;99589.89;;;20.36;65.93
75745;BME280;64359;51.366;-0.222;2022-11-15T05:42:08;99586.46;;;20.39;65.90
75745;BME280;64359;51.366;-0.222;2022-11-15T05:43:13;99587.02;;;20.41;65.96
75745;BME280;64359;51.366;-0.222;2022-11-15T05:44:20;99588.76;;;20.44;66.15
75745;BME280;64359;51.366;-0.222;2022-11-15T05:45:25;99587.73;;;20.47;66.21
75745;BME280;64359;51.366;-0.222;2022-11-15T05:46:30;99589.55;;;20.51;66.18
75745;BME280;64359;51.366;-0.222;2022-11-15T05:47:37;99581.87;;;20.56;66.13
75745;BME280;64359;51.366;-0.222;2022-11-15T05:48:45;99574.84;;;20.60;66.04
75745;BME280;64359;51.366;-0.222;2022-11-15T05:49:52;99569.16;;;20.63;65.91
75745;BME280;64359;51.366;-0.222;2022-11-15T05:50:57;99565.89;;;20.67;65.84
75745;BME280;64359;51.366;-0.222;2022-11-15T05:52:05;99556.95;;;20.70;65.72
75745;BME280;64359;51.366;-0.222;2022-11-15T05:53:12;99555.15;;;20.73;65.54
75745;BME280;64359;51.366;-0.222;2022-11-15T05:54:17;99554.30;;;20.76;65.51
75745;BME280;64359;51.366;-0.222;2022-11-15T05:55:22;99554.23;;;20.79;65.40
75745;BME280;64359;51.366;-0.222;2022-11-15T05:56:27;99556.02;;;20.82;65.25
75745;BME280;64359;51.366;-0.222;2022-11-15T05:57:32;99551.35;;;20.84;65.13
75745;BME280;64359;51.366;-0.222;2022-11-15T05:58:37;99553.99;;;20.88;65.20
75745;BME280;64359;51.366;-0.222;2022-11-15T05:59:42;99554.64;;;20.91;65.10
75745;BME280;64359;51.366;-0.222;2022-11-15T06:00:48;99558.61;;;20.93;64.98
75745;BME280;64359;51.366;-0.222;2022-11-15T06:01:52;99559.80;;;20.96;65.06
75745;BME280;64359;51.366;-0.222;2022-11-15T06:02:56;99560.16;;;20.98;64.90